Strona główna
METAR-TAF:

METAR-TAF

Lotnisko :

Port lotniczy Bintulu

Bintulu, Malezja

Szerokość geograficzna: 03-12N, Długość geograficzna: 113-02E, wysokość: 2 m

Aktualna obserwacja pogody

Raport powstał 19 minut temu, godzina 09:00 UTC
Wiatr 4 kt od północny zachód, zmienny między zachodnio-południowy zachód i północny wschód
Temperatura 32°C
Wilgotność 71%
Ciśnienie 1007 hPa
Widzialność 10 km lub więcej
Mało chmury na wysokości 1500 ft, Cumulonimbus.
Przerywane chmury na wysokości 30000 ft

METAR: WBGB 040900Z 31004KT 250V050 9999 FEW015CB BKN300 32/26 Q1007

czas: 17:19 (09:19 UTC)

Prognoza

Raport powstał 4 godziny i 19 minut temu, godzina 05:00 UTC
Prognoza ważna od 04 godzina 06 UTC do 05 godzina 06 UTC
Wiatr 3 kt z kierunków zmiennych
Widzialność 10 km lub więcej
Rozproszone chmury na wysokości 1600 ft
Przejściowo
od 04 godzina 08 UTC do 04 godzina 12 UTC
Widzialność: 4000 m
Mało chmury na wysokości 1500 ft, Cumulonimbus.
burza, deszcz

TAF: WBGB 040500Z 0406/0506 VRB03KT 9999 SCT016 TEMPO 0408/0412 4000 TSRA FEW015CB

Obserwacja i prognoza pogody dla ponad 4000 lotnisk (raport METAR i TAF).

Dostępne stacje oznaczono żółtymi i czerwonymi punktami na mapie.

Najedź kursorem aby zobaczyć nazwę stacji.

Kliknij aby zobaczyć obserwacje i prognozy pogody.

Aby zmienić mapę: kliknij na zielony przycisk z czarnym krzyżykiem, aby powiększyć; na zielony przycisk z myślnikiem, aby pomniejszyć; na zielone strzałki, aby przejść do map sąsiednich.


METAR-TAF: